Time;durP1;ratioP1;P1;durP2;ratioP2;P2;SDS_P1;SDS_P2;PMS_P1;PMS_P2;Temp;Humidity;BMP_temperature;BMP_pressure;BME280_temperature;BME280_humidity;BME280_pressure;Samples;Min_cycle;Max_cycle;Signal;HPM_P1;HPM_P2
2022/01/28 00:00:48;;;;;;;8.70;6.10;;;;;;;20.35;32.29;101054.50;101798;1340;62519;-83
2022/01/28 00:03:07;;;;;;;8.10;6.20;;;;;;;20.35;32.25;101051.45;101859;1337;63102;-86
2022/01/28 00:06:12;;;;;;;;;;;;;;;;;;;;;
2022/01/28 00:09:29;;;;;;;;;;;;;;;;;;;;;
2022/01/28 00:12:53;;;;;;;9.00;6.30;;;;;;;20.35;32.24;101060.22;102050;1336;61499;-84
2022/01/28 00:39:57;;;;;;;;;;;;;;;;;;;;;
2022/01/28 00:42:55;;;;;;;8.10;6.50;;;;;;;20.34;32.28;101020.21;100037;1367;61380;-81
2022/01/28 00:46:04;;;;;;;8.40;6.30;;;;;;;20.34;32.02;101012.89;99495;1369;74340;-84
2022/01/28 00:49:03;;;;;;;;;;;;;;;;;;;;;
2022/01/28 00:52:29;;;;;;;;;;;;;;;;;;;;;
2022/01/28 00:55:24;;;;;;;7.10;5.80;;;;;;;20.35;32.34;101018.37;99244;1373;61365;-86
2022/01/28 00:58:19;;;;;;;8.50;6.20;;;;;;;20.35;32.26;101009.96;99465;1370;72745;-83
2022/01/28 01:01:21;;;;;;;8.80;6.30;;;;;;;20.36;32.21;101009.57;99490;1370;75992;-88
2022/01/28 01:04:21;;;;;;;;;;;;;;;;;;;;;
2022/01/28 01:07:34;;;;;;;;;;;;;;;;;;;;;
2022/01/28 01:10:32;;;;;;;;;;;;;;;;;;;;;
2022/01/28 01:13:27;;;;;;;10.60;6.70;;;;;;;20.36;32.22;100989.88;101559;1342;76100;-84
2022/01/28 01:16:46;;;;;;;8.90;6.60;;;;;;;20.36;32.23;100978.44;101652;1343;61215;-82
2022/01/28 01:20:12;;;;;;;9.30;6.40;;;;;;;20.36;32.24;100968.61;101828;1337;61544;-84
2022/01/28 01:23:12;;;;;;;8.40;6.30;;;;;;;20.36;32.34;100960.23;101906;1337;73696;-86
2022/01/28 01:26:41;;;;;;;8.00;6.60;;;;;;;20.36;32.21;100953.98;101831;1340;75001;-87
2022/01/28 01:29:23;;;;;;;8.10;5.90;;;;;;;20.36;32.26;100941.30;101782;1340;61227;-85
2022/01/28 01:32:40;;;;;;;9.00;6.30;;;;;;;20.36;32.26;100934.28;101976;1335;61394;-82
2022/01/28 01:35:35;;;;;;;8.50;6.40;;;;;;;20.37;32.35;100926.55;101910;1340;73899;-88
2022/01/28 01:38:44;;;;;;;8.60;6.20;;;;;;;20.36;32.24;100913.88;101744;1343;76336;-85
2022/01/28 01:42:25;;;;;;;9.10;6.80;;;;;;;20.37;32.19;100904.20;101813;1340;61393;-85
2022/01/28 01:52:04;;;;;;;7.70;5.40;;;;;;;20.36;32.26;100897.46;101567;1346;73698;-82
2022/01/28 01:55:02;;;;;;;7.40;5.90;;;;;;;20.37;32.29;100892.24;101567;1348;61659;-86
2022/01/28 01:58:31;;;;;;;9.20;6.70;;;;;;;20.36;32.43;100884.24;101532;1348;61367;-84
2022/01/28 02:01:40;;;;;;;7.40;5.70;;;;;;;20.36;32.29;100880.85;101818;1340;73913;-88
2022/01/28 02:04:49;;;;;;;9.20;6.20;;;;;;;20.36;32.21;100877.61;101606;1346;74774;-83
2022/01/28 02:08:06;;;;;;;;;;;;;;;;;;;;;
2022/01/28 02:11:20;;;;;;;8.90;6.10;;;;;;;20.36;32.21;100862.98;101539;1348;63426;-80
2022/01/28 02:14:42;;;;;;;;;;;;;;;;;;;;;
2022/01/28 02:17:46;;;;;;;;;;;;;;;;;;;;;
2022/01/28 02:20:54;;;;;;;;;;;;;;;;;;;;;
2022/01/28 02:23:56;;;;;;;8.60;6.20;;;;;;;20.37;32.27;100852.18;101803;1341;61582;-79
2022/01/28 02:26:50;;;;;;;9.50;6.10;;;;;;;20.37;32.21;100847.35;101763;1340;72353;-87
2022/01/28 02:29:56;;;;;;;;;;;;;;;;;;;;;
2022/01/28 02:33:15;;;;;;;8.60;6.40;;;;;;;20.37;32.16;100836.80;101764;1341;61259;-85
2022/01/28 02:36:21;;;;;;;7.50;5.50;;;;;;;20.36;32.19;100828.46;101605;1348;61219;-85
2022/01/28 02:39:28;;;;;;;;;;;;;;;20.37;32.14;100817.67;101260;1352;74198;-87
2022/01/28 02:46:34;;;;;;;8.00;5.70;;;;;;;20.36;32.23;100817.04;101564;1345;61403;-84
2022/01/28 02:49:32;;;;;;;;;;;;;;;;;;;;;
2022/01/28 02:52:49;;;;;;;8.10;6.10;;;;;;;20.36;32.28;100814.52;101644;1346;72803;-86
2022/01/28 02:56:21;;;;;;;7.70;5.80;;;;;;;20.36;32.19;100813.09;101469;1351;75768;-85
2022/01/28 02:59:00;;;;;;;9.90;6.60;;;;;;;20.36;32.20;100808.79;101455;1346;61835;-86
2022/01/28 03:01:50;;;;;;;8.10;5.70;;;;;;;20.37;32.28;100809.67;101691;1346;61410;-84
2022/01/28 03:08:24;;;;;;;8.60;6.20;;;;;;;20.37;32.19;100802.34;101665;1346;76557;-82
2022/01/28 03:15:26;;;;;;;7.40;5.50;;;;;;;20.37;32.25;100806.41;101678;1343;61640;-88
2022/01/28 03:19:21;;;;;;;7.60;5.90;;;;;;;20.37;32.20;100802.85;101625;1345;74185;-85
2022/01/28 03:21:57;;;;;;;8.60;5.70;;;;;;;20.37;32.35;100796.08;101616;1342;75317;-87
2022/01/28 03:25:27;;;;;;;7.80;6.10;;;;;;;20.38;32.24;100796.39;101712;1343;61352;-85
2022/01/28 03:29:02;;;;;;;9.00;5.80;;;;;;;20.37;32.34;100797.14;101689;1345;61591;-85
2022/01/28 03:31:58;;;;;;;7.60;5.60;;;;;;;20.37;32.18;100796.96;101215;1350;74170;-86
2022/01/28 03:35:01;;;;;;;7.10;5.60;;;;;;;20.37;32.19;100802.46;101408;1351;74998;-84
2022/01/28 03:38:15;;;;;;;8.50;6.00;;;;;;;20.38;32.05;100808.70;101426;1350;62451;-85
2022/01/28 03:41:26;;;;;;;;;;;;;;;;;;;;;
2022/01/28 03:44:15;;;;;;;7.40;5.30;;;;;;;20.38;32.14;100810.30;101382;1351;73343;-86
2022/01/28 03:47:28;;;;;;;8.70;5.90;;;;;;;20.38;32.17;100809.45;101408;1346;75055;-81
2022/01/28 03:50:53;;;;;;;;;;;;;;;;;;;;;
2022/01/28 03:53:41;;;;;;;7.50;6.00;;;;;;;20.37;32.14;100810.16;100932;1354;61499;-82
2022/01/28 03:57:06;;;;;;;;;;;;;;;;;;;;;
2022/01/28 04:00:12;;;;;;;;;;;;;;;;;;;;;
2022/01/28 04:03:09;;;;;;;7.50;5.70;;;;;;;20.38;32.19;100797.98;99560;1370;61294;-84
2022/01/28 04:13:15;;;;;;;;;;;;;;;;;;;;;
2022/01/28 04:19:35;;;;;;;7.80;5.90;;;;;;;20.37;32.07;100783.57;100165;1361;62050;-84
2022/01/28 04:22:21;;;;;;;7.70;6.00;;;;;;;20.37;32.20;100768.56;100073;1363;71954;-83
2022/01/28 04:25:37;;;;;;;8.20;6.00;;;;;;;20.37;32.17;100777.11;100144;1362;74821;-84
2022/01/28 04:28:42;;;;;;;8.10;6.30;;;;;;;20.37;32.15;100774.79;99985;1363;61692;-87
2022/01/28 04:31:45;;;;;;;8.30;5.80;;;;;;;20.37;32.00;100775.34;100231;1358;62137;-85
2022/01/28 04:34:53;;;;;;;8.50;6.40;;;;;;;20.37;31.86;100765.33;100674;1355;72851;-80
2022/01/28 04:41:44;;;;;;;;;;;;;;;;;;;;;
2022/01/28 04:45:29;;;;;;;;;;;;;;;;;;;;;
2022/01/28 04:48:34;;;;;;;7.90;5.80;;;;;;;20.35;31.96;100765.80;101412;1349;71779;-84
2022/01/28 04:54:55;;;;;;;7.50;5.70;;;;;;;20.36;31.92;100768.84;100537;1354;61458;-80
2022/01/28 05:01:27;;;;;;;8.60;6.10;;;;;;;20.36;32.01;100770.20;101507;1348;73961;-85
2022/01/28 05:14:10;;;;;;;9.00;6.40;;;;;;;20.36;32.01;100766.61;101491;1345;72255;-83
2022/01/28 05:26:53;;;;;;;8.90;6.90;;;;;;;20.39;32.01;100787.36;101540;1345;72922;-82
2022/01/28 05:29:31;;;;;;;9.10;6.90;;;;;;;20.38;31.98;100790.82;101685;1340;76241;-84
2022/01/28 05:32:28;;;;;;;11.40;8.30;;;;;;;20.37;31.89;100797.17;101995;1333;61457;-84
2022/01/28 05:35:26;;;;;;;11.00;7.40;;;;;;;20.34;31.61;100794.45;101685;1340;62907;-82
2022/01/28 05:38:16;;;;;;;14.10;8.80;;;;;;;20.33;31.29;100793.32;101615;1343;73910;-80
2022/01/28 05:41:02;;;;;;;12.90;8.60;;;;;;;20.30;31.04;100788.83;101497;1343;73520;-83
2022/01/28 05:43:57;;;;;;;12.00;9.20;;;;;;;20.29;30.73;100780.21;101363;1342;61256;-80
2022/01/28 05:46:44;;;;;;;14.90;9.50;;;;;;;20.25;30.40;100778.84;101206;1343;61661;-78
2022/01/28 05:49:24;;;;;;;15.00;9.70;;;;;;;20.21;30.09;100783.39;101332;1343;73918;-80
2022/01/28 05:51:49;;;;;;;13.60;9.40;;;;;;;20.18;29.81;100790.21;101901;1337;74910;-80
2022/01/28 05:54:15;;;;;;;15.80;9.90;;;;;;;20.14;29.71;100792.78;101346;1335;61370;-79
2022/01/28 05:56:43;;;;;;;13.30;10.10;;;;;;;20.10;29.46;100792.14;101456;1337;62542;-79
2022/01/28 05:59:12;;;;;;;14.70;10.40;;;;;;;20.04;29.29;100789.50;101104;1337;73901;-81
2022/01/28 06:01:38;;;;;;;16.30;11.00;;;;;;;19.98;29.05;100778.13;101687;1331;73994;-79
2022/01/28 06:04:12;;;;;;;16.70;10.80;;;;;;;19.93;28.80;100779.36;101696;1331;61467;-79
2022/01/28 06:06:38;;;;;;;20.10;10.80;;;;;;;19.90;28.72;100782.92;101749;1328;61277;-79
2022/01/28 06:09:04;;;;;;;14.10;10.20;;;;;;;19.88;28.56;100788.77;102007;1328;61645;-80
2022/01/28 06:11:32;;;;;;;19.80;10.60;;;;;;;19.86;28.47;100787.11;102020;1319;61403;-80
2022/01/28 06:14:00;;;;;;;21.10;11.30;;;;;;;19.86;28.32;100788.72;103379;1313;61648;-79
2022/01/28 06:16:26;;;;;;;16.90;11.60;;;;;;;19.87;28.15;100785.46;104078;1305;61507;-79
2022/01/28 06:18:52;;;;;;;20.20;10.40;;;;;;;19.87;28.18;100776.19;103828;1305;61357;-78
2022/01/28 06:21:23;;;;;;;21.40;10.50;;;;;;;19.88;28.14;100777.36;103933;1305;76330;-79
2022/01/28 06:23:51;;;;;;;15.20;9.80;;;;;;;19.91;28.12;100773.75;103861;1306;61400;-79
2022/01/28 06:26:20;;;;;;;17.40;9.90;;;;;;;19.93;28.21;100777.55;103939;1303;61719;-80
2022/01/28 06:28:49;;;;;;;16.40;10.00;;;;;;;19.97;28.06;100773.55;104010;1303;72833;-79
2022/01/28 06:31:15;;;;;;;17.90;9.80;;;;;;;20.01;28.15;100774.23;103913;1305;75620;-78
2022/01/28 06:33:41;;;;;;;14.80;9.80;;;;;;;20.04;28.10;100777.92;104181;1303;61361;-79
2022/01/28 06:36:06;;;;;;;14.30;9.20;;;;;;;20.07;28.30;100772.19;104905;1304;62004;-79
2022/01/28 06:38:44;;;;;;;14.10;9.60;;;;;;;20.10;28.37;100772.69;103793;1305;61324;-80
2022/01/28 06:41:10;;;;;;;12.90;9.10;;;;;;;20.12;28.39;100779.68;104148;1303;76341;-78
2022/01/28 06:43:44;;;;;;;16.10;9.20;;;;;;;20.15;28.50;100778.08;104044;1305;61434;-79
2022/01/28 06:46:10;;;;;;;14.00;8.70;;;;;;;20.17;28.52;100778.83;104254;1303;61306;-79
2022/01/28 06:48:38;;;;;;;14.70;9.50;;;;;;;20.19;28.53;100789.26;104155;1303;72730;-79
2022/01/28 06:51:04;;;;;;;13.70;9.50;;;;;;;20.21;28.64;100797.16;103774;1305;63080;-78
2022/01/28 06:53:39;;;;;;;14.30;9.20;;;;;;;20.23;28.56;100804.71;103942;1305;61256;-78
2022/01/28 06:56:05;;;;;;;22.30;9.90;;;;;;;20.22;28.73;100805.81;103862;1303;61780;-78
2022/01/28 06:58:30;;;;;;;19.00;9.30;;;;;;;20.19;28.66;100806.73;103985;1303;61282;-77
2022/01/28 07:00:57;;;;;;;18.00;9.10;;;;;;;20.18;28.85;100803.08;103622;1306;61396;-78
2022/01/28 07:03:26;;;;;;;15.50;9.10;;;;;;;20.17;29.09;100805.23;103743;1306;62480;-79
2022/01/28 07:05:51;;;;;;;14.30;9.20;;;;;;;20.18;29.13;100809.30;103861;1304;61246;-78
2022/01/28 07:08:18;;;;;;;17.20;9.60;;;;;;;20.19;29.11;100814.77;103877;1304;61298;-79
2022/01/28 07:10:48;;;;;;;16.70;8.60;;;;;;;20.21;29.23;100817.88;103966;1303;61284;-78
2022/01/28 07:13:14;;;;;;;19.50;9.20;;;;;;;20.23;29.37;100821.65;103876;1304;61377;-78
2022/01/28 07:15:43;;;;;;;13.90;9.00;;;;;;;20.25;29.34;100827.45;103932;1303;61321;-79
2022/01/28 07:18:09;;;;;;;16.70;8.80;;;;;;;20.27;29.38;100833.23;103775;1304;73893;-79
2022/01/28 07:20:38;;;;;;;15.90;8.60;;;;;;;20.28;29.47;100843.13;104032;1303;63803;-78
2022/01/28 07:23:16;;;;;;;14.90;8.60;;;;;;;20.30;29.46;100843.04;103787;1305;61274;-80
2022/01/28 07:25:49;;;;;;;16.80;9.20;;;;;;;20.31;29.75;100835.27;103990;1305;63187;-81
2022/01/28 07:28:16;;;;;;;16.70;9.20;;;;;;;20.30;29.84;100829.64;104109;1303;73841;-79
2022/01/28 07:31:02;;;;;;;17.80;9.70;;;;;;;20.29;29.76;100824.52;103733;1304;74763;-79
2022/01/28 07:33:34;;;;;;;14.10;9.00;;;;;;;20.28;29.88;100829.02;104047;1303;60436;-81
2022/01/28 07:36:02;;;;;;;17.10;9.10;;;;;;;20.29;29.73;100831.48;103746;1305;61159;-79
2022/01/28 07:38:27;;;;;;;14.30;8.90;;;;;;;20.29;29.71;100833.98;103896;1303;72819;-79
2022/01/28 07:40:56;;;;;;;13.70;8.90;;;;;;;20.30;29.56;100827.46;104142;1303;61254;-79
2022/01/28 07:43:23;;;;;;;13.70;8.90;;;;;;;20.32;29.51;100824.86;103701;1304;61196;-80
2022/01/28 07:45:51;;;;;;;16.70;9.20;;;;;;;20.32;29.60;100818.38;104086;1304;61198;-79
2022/01/28 07:48:36;;;;;;;14.70;10.00;;;;;;;20.31;29.66;100801.31;103403;1310;71577;-79
2022/01/28 07:51:02;;;;;;;21.00;10.80;;;;;;;20.28;29.50;100794.88;103457;1310;61450;-79
2022/01/28 07:53:36;;;;;;;18.20;12.80;;;;;;;20.21;29.11;100794.98;103350;1310;61417;-79
2022/01/28 07:56:03;;;;;;;20.50;11.40;;;;;;;20.06;28.86;100801.67;103463;1310;61947;-81
2022/01/28 07:58:29;;;;;;;18.00;11.30;;;;;;;19.92;29.09;100794.27;103220;1311;61447;-79
2022/01/28 08:00:54;;;;;;;19.90;11.10;;;;;;;19.86;29.31;100797.53;103404;1310;61269;-79
2022/01/28 08:03:20;;;;;;;17.40;11.30;;;;;;;19.83;29.19;100802.35;103417;1311;61666;-79
2022/01/28 08:05:45;;;;;;;21.10;12.50;;;;;;;19.80;29.54;100793.77;103476;1311;61408;-80
2022/01/28 08:08:13;;;;;;;20.80;13.30;;;;;;;19.74;29.29;100793.77;103470;1310;61343;-79
2022/01/28 08:10:39;;;;;;;19.50;12.60;;;;;;;19.70;29.15;100798.67;103470;1310;61207;-80
2022/01/28 08:13:05;;;;;;;22.30;13.10;;;;;;;19.69;29.13;100801.05;103401;1311;61441;-81
2022/01/28 08:15:35;;;;;;;17.40;11.60;;;;;;;19.72;29.04;100810.53;103718;1311;61377;-79
2022/01/28 08:18:02;;;;;;;19.70;12.40;;;;;;;19.74;28.82;100821.80;103879;1311;61224;-80
2022/01/28 08:20:33;;;;;;;16.90;12.30;;;;;;;19.78;28.67;100818.20;103672;1311;75025;-79
2022/01/28 08:23:02;;;;;;;19.60;12.20;;;;;;;19.80;28.46;100813.05;103621;1311;63465;-80
2022/01/28 08:25:35;;;;;;;19.50;12.80;;;;;;;19.82;28.53;100811.17;103519;1306;61392;-81
2022/01/28 08:28:02;;;;;;;18.40;11.90;;;;;;;19.82;28.56;100806.38;103895;1308;72846;-81
2022/01/28 08:30:31;;;;;;;17.50;12.40;;;;;;;19.82;28.57;100805.66;103903;1305;75690;-77
2022/01/28 08:33:09;;;;;;;19.50;11.30;;;;;;;19.83;28.38;100797.70;104101;1305;62688;-80
2022/01/28 08:35:50;;;;;;;22.40;11.90;;;;;;;19.84;28.37;100783.89;103936;1305;61387;-79
2022/01/28 08:38:28;;;;;;;19.10;12.20;;;;;;;19.85;28.41;100787.77;104030;1305;72858;-79
2022/01/28 08:40:56;;;;;;;19.30;11.10;;;;;;;19.87;28.39;100789.77;104038;1305;75887;-79
2022/01/28 08:43:24;;;;;;;22.20;11.70;;;;;;;19.89;28.42;100776.94;104198;1306;61213;-79
2022/01/28 08:45:49;;;;;;;16.20;10.80;;;;;;;19.92;28.47;100778.70;103834;1306;63434;-79
2022/01/28 08:48:15;;;;;;;16.10;10.80;;;;;;;19.93;28.38;100776.48;103852;1305;61352;-79
2022/01/28 08:50:41;;;;;;;22.60;11.00;;;;;;;19.94;28.53;100776.45;103863;1306;61286;-79
2022/01/28 08:53:07;;;;;;;17.80;12.40;;;;;;;19.93;28.68;100773.13;103837;1306;61324;-81
2022/01/28 08:55:35;;;;;;;25.20;14.40;;;;;;;19.85;28.67;100779.48;103845;1307;61376;-80
2022/01/28 08:58:11;;;;;;;24.60;11.90;;;;;;;19.64;28.60;100769.80;103967;1305;74353;-81
2022/01/28 09:00:48;;;;;;;18.20;10.60;;;;;;;19.48;28.65;100774.23;103801;1305;74929;-81
2022/01/28 09:03:17;;;;;;;22.20;11.00;;;;;;;19.46;29.08;100781.01;103950;1305;61149;-80
2022/01/28 09:05:43;;;;;;;18.80;11.10;;;;;;;19.47;29.18;100795.19;103826;1305;61389;-80
2022/01/28 09:08:12;;;;;;;21.50;12.00;;;;;;;19.47;29.14;100800.36;103822;1305;61409;-80
2022/01/28 09:10:44;;;;;;;17.20;10.40;;;;;;;19.47;29.06;100805.16;103715;1307;76452;-79
2022/01/28 09:13:21;;;;;;;20.50;11.80;;;;;;;19.48;29.14;100811.88;104009;1303;61331;-79
2022/01/28 09:15:48;;;;;;;18.50;11.50;;;;;;;19.49;29.23;100813.45;103989;1304;62178;-79
2022/01/28 09:18:14;;;;;;;18.50;11.40;;;;;;;19.51;29.11;100813.89;103849;1305;61320;-79
2022/01/28 09:20:49;;;;;;;20.70;11.10;;;;;;;19.52;29.17;100806.27;103996;1305;61535;-82
2022/01/28 09:23:17;;;;;;;16.20;10.30;;;;;;;19.57;29.13;100808.81;104077;1305;61194;-82
2022/01/28 09:25:47;;;;;;;20.00;11.20;;;;;;;19.61;28.95;100800.35;103986;1305;61871;-80
2022/01/28 09:28:13;;;;;;;17.00;10.90;;;;;;;19.66;29.01;100795.95;104010;1304;73849;-80
2022/01/28 09:30:43;;;;;;;18.60;10.20;;;;;;;19.69;29.16;100803.36;103996;1303;75827;-80
2022/01/28 09:33:09;;;;;;;17.80;10.70;;;;;;;19.73;29.15;100798.33;103848;1305;61385;-80
2022/01/28 09:35:41;;;;;;;16.00;9.80;;;;;;;19.76;29.15;100802.58;103550;1304;61075;-79
2022/01/28 09:38:07;;;;;;;17.70;11.00;;;;;;;19.78;29.24;100797.83;104584;1308;71961;-79
2022/01/28 09:40:32;;;;;;;22.40;11.20;;;;;;;19.79;29.27;100786.00;103134;1307;61424;-78
2022/01/28 09:43:00;;;;;;;16.20;10.90;;;;;;;19.79;29.30;100783.86;103821;1308;61256;-79
2022/01/28 09:45:26;;;;;;;16.20;11.30;;;;;;;19.80;29.12;100783.96;103713;1308;61440;-79
2022/01/28 09:47:54;;;;;;;14.60;10.80;;;;;;;19.83;29.06;100802.21;103745;1307;61407;-80
2022/01/28 09:50:21;;;;;;;14.80;10.40;;;;;;;19.86;29.14;100818.24;104114;1308;76107;-79
2022/01/28 09:52:49;;;;;;;21.00;12.20;;;;;;;19.87;29.24;100817.96;103729;1307;62041;-81
2022/01/28 09:55:17;;;;;;;22.50;12.90;;;;;;;19.82;28.96;100813.27;103533;1308;61346;-78
2022/01/28 09:57:47;;;;;;;23.20;12.90;;;;;;;19.76;28.91;100822.23;103795;1307;72890;-79
2022/01/28 10:00:13;;;;;;;23.70;13.40;;;;;;;19.67;28.67;100824.78;104991;1305;75926;-78
2022/01/28 10:03:11;;;;;;;19.70;11.00;;;;;;;19.64;28.88;100827.31;104199;1305;61421;-80
2022/01/28 10:05:37;;;;;;;24.40;12.20;;;;;;;19.61;28.99;100826.02;104729;1313;60566;-79
2022/01/28 10:08:08;;;;;;;22.90;11.60;;;;;;;19.63;29.09;100828.23;104891;1313;75235;-79
2022/01/28 10:11:03;;;;;;;21.00;11.70;;;;;;;19.67;29.26;100833.70;104467;1313;75965;-80
2022/01/28 10:16:19;;;;;;;17.30;11.30;;;;;;;19.75;29.52;100830.67;103924;1311;59725;-79
2022/01/28 10:19:11;;;;;;;20.70;11.40;;;;;;;19.77;29.50;100833.39;104811;1313;72926;-81
2022/01/28 10:21:43;;;;;;;19.40;10.80;;;;;;;19.80;29.45;100832.16;103001;1319;75795;-79
2022/01/28 10:24:22;;;;;;;15.80;10.80;;;;;;;19.84;29.43;100819.63;102840;1319;62384;-81
2022/01/28 10:27:16;;;;;;;18.50;11.00;;;;;;;19.87;29.51;100809.79;102636;1319;61371;-78
2022/01/28 10:29:43;;;;;;;16.60;9.80;;;;;;;19.89;29.49;100805.13;102180;1325;74144;-79
2022/01/28 10:32:13;;;;;;;18.70;10.30;;;;;;;19.92;29.43;100796.55;102357;1325;74895;-81
2022/01/28 10:34:51;;;;;;;20.20;10.90;;;;;;;19.95;29.58;100789.77;102255;1326;63650;-81
2022/01/28 10:37:29;;;;;;;19.70;10.30;;;;;;;19.98;29.73;100777.59;102241;1325;61192;-82
2022/01/28 10:40:09;;;;;;;19.10;9.70;;;;;;;20.00;29.65;100762.67;102336;1325;73046;-80
2022/01/28 10:42:48;;;;;;;19.00;9.90;;;;;;;20.01;29.78;100763.81;102541;1322;74756;-81
2022/01/28 10:45:18;;;;;;;16.10;10.30;;;;;;;20.02;29.91;100770.73;102933;1319;61209;-81
2022/01/28 10:47:45;;;;;;;20.30;10.40;;;;;;;20.01;29.86;100764.36;102759;1319;61530;-80
2022/01/28 10:50:37;;;;;;;23.30;11.70;;;;;;;20.01;29.89;100755.43;103872;1319;74104;-80
2022/01/28 10:53:11;;;;;;;32.20;13.10;;;;;;;19.99;29.87;100750.94;103647;1323;73825;-81
2022/01/28 10:55:41;;;;;;;24.20;13.10;;;;;;;19.87;29.52;100749.92;103464;1325;61072;-80
2022/01/28 10:58:14;;;;;;;19.90;12.20;;;;;;;19.67;29.26;100751.02;103545;1319;60502;-80
2022/01/28 11:00:47;;;;;;;20.40;13.40;;;;;;;19.50;29.09;100747.16;103909;1319;73110;-80
2022/01/28 11:03:14;;;;;;;19.80;11.20;;;;;;;19.43;29.19;100740.49;103881;1319;73733;-80
2022/01/28 11:05:43;;;;;;;18.60;11.70;;;;;;;19.42;29.36;100733.60;103308;1320;59844;-80
2022/01/28 11:08:12;;;;;;;19.30;10.80;;;;;;;19.31;29.39;100738.02;103021;1314;61352;-80
2022/01/28 11:10:39;;;;;;;22.70;10.90;;;;;;;19.30;29.43;100736.85;103199;1313;72676;-81
2022/01/28 11:13:16;;;;;;;17.40;11.00;;;;;;;19.33;29.29;100739.33;103398;1314;74989;-80
2022/01/28 11:16:11;;;;;;;15.70;10.60;;;;;;;19.36;29.41;100738.05;103363;1313;63440;-79
2022/01/28 11:18:38;;;;;;;19.40;10.90;;;;;;;19.38;29.49;100727.59;103470;1313;61210;-79
2022/01/28 11:21:16;;;;;;;16.30;10.30;;;;;;;19.40;29.31;100725.85;103459;1314;72738;-80
2022/01/28 11:24:10;;;;;;;16.50;10.80;;;;;;;19.43;29.28;100726.52;103517;1313;74136;-79
2022/01/28 11:26:46;;;;;;;15.60;10.50;;;;;;;19.46;29.22;100723.73;104105;1313;61496;-79
2022/01/28 11:29:28;;;;;;;16.50;9.90;;;;;;;19.48;29.07;100720.33;103790;1313;61400;-79
2022/01/28 11:32:15;;;;;;;16.30;11.60;;;;;;;19.53;29.11;100715.73;104177;1305;72833;-80
2022/01/28 11:35:02;;;;;;;21.70;11.30;;;;;;;19.56;28.97;100717.30;104905;1307;76000;-80
2022/01/28 11:38:01;;;;;;;22.20;9.80;;;;;;;19.57;29.02;100716.70;104713;1306;61845;-82
2022/01/28 11:40:44;;;;;;;21.40;10.60;;;;;;;19.56;29.20;100707.27;103997;1305;63568;-80
2022/01/28 11:43:33;;;;;;;19.10;10.50;;;;;;;19.58;29.33;100705.59;103811;1306;72832;-80
2022/01/28 11:46:20;;;;;;;17.40;10.70;;;;;;;19.60;29.34;100704.20;103801;1305;74881;-79
2022/01/28 11:48:54;;;;;;;16.60;10.20;;;;;;;19.60;29.44;100694.89;103833;1305;61557;-80
2022/01/28 11:51:22;;;;;;;17.50;11.70;;;;;;;19.59;29.26;100696.07;104588;1305;59989;-79
2022/01/28 11:53:56;;;;;;;17.90;12.20;;;;;;;19.46;28.86;100688.36;104956;1305;74080;-79
2022/01/28 11:56:21;;;;;;;23.70;12.40;;;;;;;19.34;28.61;100689.14;104959;1306;75219;-79
2022/01/28 11:58:53;;;;;;;20.50;10.90;;;;;;;19.25;28.65;100692.90;104991;1305;59288;-79
2022/01/28 12:01:24;;;;;;;19.90;11.40;;;;;;;19.26;28.90;100692.30;104993;1307;60463;-80
2022/01/28 12:03:50;;;;;;;15.60;10.40;;;;;;;19.30;29.12;100694.02;105103;1306;73620;-79
2022/01/28 12:06:17;;;;;;;16.30;10.80;;;;;;;19.34;29.02;100691.44;105109;1308;59636;-80
2022/01/28 12:08:43;;;;;;;17.90;11.40;;;;;;;19.35;28.93;100694.75;105173;1305;60703;-79
2022/01/28 12:11:10;;;;;;;18.00;10.60;;;;;;;19.36;28.91;100690.04;105202;1307;59795;-79
2022/01/28 12:14:06;;;;;;;17.30;9.80;;;;;;;19.38;28.87;100696.00;105134;1308;59283;-79
2022/01/28 12:16:33;;;;;;;17.00;10.50;;;;;;;19.42;28.83;100692.85;105183;1306;75751;-79
2022/01/28 12:18:59;;;;;;;15.30;9.60;;;;;;;19.48;28.83;100687.33;105304;1305;61333;-79
2022/01/28 12:21:31;;;;;;;15.70;9.60;;;;;;;19.53;28.81;100685.38;105421;1305;59948;-79
2022/01/28 12:24:18;;;;;;;15.80;10.10;;;;;;;19.60;28.92;100686.17;105238;1305;72745;-80
2022/01/28 12:27:02;;;;;;;13.20;9.30;;;;;;;19.63;28.76;100681.84;105377;1305;75702;-80
2022/01/28 12:29:32;;;;;;;16.80;11.30;;;;;;;19.65;28.78;100679.41;104457;1305;61967;-80
2022/01/28 12:32:03;;;;;;;16.10;9.20;;;;;;;19.64;28.64;100679.67;104498;1305;62483;-82
2022/01/28 12:34:29;;;;;;;19.00;10.00;;;;;;;19.63;28.68;100675.97;104345;1305;72968;-81
2022/01/28 12:37:04;;;;;;;19.00;9.80;;;;;;;19.64;28.79;100668.25;104268;1305;61291;-81
2022/01/28 12:39:34;;;;;;;18.80;9.30;;;;;;;19.63;28.84;100668.30;104444;1306;61274;-80
2022/01/28 12:42:21;;;;;;;;;;;;;;;;;;;;;
2022/01/28 12:44:55;;;;;;;16.00;9.40;;;;;;;19.62;29.11;100672.29;104239;1305;72885;-80
2022/01/28 12:47:37;;;;;;;17.10;9.10;;;;;;;19.63;29.14;100672.23;104118;1305;75628;-80
2022/01/28 12:50:16;;;;;;;17.00;9.10;;;;;;;19.63;29.36;100675.09;104168;1308;61189;-83
2022/01/28 12:52:55;;;;;;;17.60;10.10;;;;;;;19.63;29.59;100672.08;104252;1305;61890;-80
2022/01/28 12:55:44;;;;;;;16.20;10.60;;;;;;;19.61;29.46;100668.94;104388;1305;72521;-81
2022/01/28 12:58:15;;;;;;;15.20;10.40;;;;;;;19.60;29.47;100671.02;104433;1305;74902;-80
2022/01/28 13:00:55;;;;;;;14.70;9.20;;;;;;;19.57;29.24;100667.05;104026;1308;61312;-80
2022/01/28 13:03:37;;;;;;;14.50;8.90;;;;;;;19.55;29.22;100671.31;104160;1308;61180;-82
2022/01/28 13:09:12;;;;;;;17.20;9.30;;;;;;;19.52;29.16;100666.56;104337;1306;76367;-79
2022/01/28 13:12:14;;;;;;;13.10;9.10;;;;;;;19.50;28.99;100670.77;104144;1308;62656;-79
2022/01/28 13:14:53;;;;;;;;;;;;;;;;;;;;;
2022/01/28 13:18:08;;;;;;;17.50;9.90;;;;;;;19.48;28.80;100670.53;104232;1308;72840;-79
2022/01/28 13:21:00;;;;;;;15.30;9.20;;;;;;;19.46;28.65;100668.92;103994;1311;75056;-81
2022/01/28 13:23:49;;;;;;;12.30;8.40;;;;;;;19.45;28.67;100663.41;104128;1311;61449;-83
2022/01/28 13:26:34;;;;;;;14.20;9.10;;;;;;;19.44;28.71;100658.84;104110;1311;61320;-80
2022/01/28 13:29:20;;;;;;;19.10;9.80;;;;;;;19.43;28.70;100657.47;104028;1311;72934;-79
2022/01/28 13:32:25;;;;;;;14.80;9.40;;;;;;;19.42;28.68;100657.86;104063;1314;74709;-81
2022/01/28 13:35:36;;;;;;;14.20;10.20;;;;;;;19.42;28.52;100655.77;104074;1313;61383;-83
2022/01/28 13:38:48;;;;;;;14.80;9.10;;;;;;;19.42;28.39;100654.15;103549;1318;61341;-80
2022/01/28 13:41:37;;;;;;;13.30;9.20;;;;;;;19.43;28.38;100654.44;103382;1319;72477;-84
2022/01/28 13:45:02;;;;;;;14.50;8.00;;;;;;;19.45;28.39;100650.75;102615;1324;73506;-84
2022/01/28 13:48:08;;;;;;;22.00;8.50;;;;;;;19.53;29.45;100649.86;102322;1331;61346;-80
2022/01/28 13:51:06;;;;;;;20.30;8.40;;;;;;;19.64;30.21;100645.36;102370;1331;60532;-81
2022/01/28 13:54:25;;;;;;;;;;;;;;;;;;;;;
2022/01/28 13:56:51;;;;;;;27.70;17.80;;;;;;;19.79;31.03;100652.98;101745;1337;75785;-80
2022/01/28 13:59:39;;;;;;;27.30;17.10;;;;;;;19.83;30.98;100655.22;101719;1337;61425;-83
2022/01/28 14:02:24;;;;;;;29.20;18.90;;;;;;;19.85;31.07;100652.77;101834;1337;61702;-80
2022/01/28 14:05:10;;;;;;;26.60;14.40;;;;;;;19.84;30.96;100646.38;101674;1337;72923;-79
2022/01/28 14:07:52;;;;;;;20.20;13.90;;;;;;;19.85;30.67;100650.60;102132;1337;76538;-82
2022/01/28 14:10:29;;;;;;;21.20;13.80;;;;;;;19.85;30.51;100648.60;101748;1337;61863;-81
2022/01/28 14:13:15;;;;;;;21.00;13.80;;;;;;;19.87;30.35;100647.60;101627;1337;61366;-80
2022/01/28 14:16:21;;;;;;;19.80;12.70;;;;;;;19.88;30.21;100648.97;102187;1331;72753;-82
2022/01/28 14:19:18;;;;;;;18.10;12.70;;;;;;;19.89;30.09;100652.99;102489;1328;74813;-80
2022/01/28 14:22:27;;;;;;;19.90;12.30;;;;;;;19.91;29.95;100649.64;102713;1321;61334;-79
2022/01/28 14:25:13;;;;;;;18.20;12.20;;;;;;;19.92;29.96;100648.33;102485;1329;61675;-83
2022/01/28 14:31:18;;;;;;;14.70;11.50;;;;;;;19.95;30.08;100661.88;102248;1328;76319;-82